sensor_id;sensor_type;location;lat;lon;timestamp;temperature;humidity
8002;DHT22;4046;48.774;8.732;2024-03-08T00:01:21;20.70;70.00
8002;DHT22;4046;48.774;8.732;2024-03-08T00:03:59;20.70;70.00
8002;DHT22;4046;48.774;8.732;2024-03-08T00:06:34;20.80;70.10
8002;DHT22;4046;48.774;8.732;2024-03-08T00:09:34;20.70;70.00
8002;DHT22;4046;48.774;8.732;2024-03-08T00:12:24;20.70;70.00
8002;DHT22;4046;48.774;8.732;2024-03-08T00:14:53;20.70;70.00
8002;DHT22;4046;48.774;8.732;2024-03-08T00:17:21;20.70;69.90
8002;DHT22;4046;48.774;8.732;2024-03-08T00:19:50;20.70;69.90
8002;DHT22;4046;48.774;8.732;2024-03-08T00:22:41;20.70;69.90
8002;DHT22;4046;48.774;8.732;2024-03-08T00:25:27;20.70;69.90
8002;DHT22;4046;48.774;8.732;2024-03-08T00:28:20;20.70;69.80
8002;DHT22;4046;48.774;8.732;2024-03-08T00:31:19;20.70;69.90
8002;DHT22;4046;48.774;8.732;2024-03-08T00:34:10;20.70;69.80
8002;DHT22;4046;48.774;8.732;2024-03-08T00:37:03;20.70;70.60
8002;DHT22;4046;48.774;8.732;2024-03-08T00:42:36;20.70;69.80
8002;DHT22;4046;48.774;8.732;2024-03-08T00:52:06;20.70;69.80
8002;DHT22;4046;48.774;8.732;2024-03-08T00:55:01;20.70;69.90
8002;DHT22;4046;48.774;8.732;2024-03-08T01:01:18;20.70;69.80
8002;DHT22;4046;48.774;8.732;2024-03-08T01:03:56;20.70;69.80
8002;DHT22;4046;48.774;8.732;2024-03-08T01:07:06;20.70;69.80
8002;DHT22;4046;48.774;8.732;2024-03-08T01:09:49;20.70;69.80
8002;DHT22;4046;48.774;8.732;2024-03-08T01:12:35;20.70;69.80
8002;DHT22;4046;48.774;8.732;2024-03-08T01:15:59;20.70;69.80
8002;DHT22;4046;48.774;8.732;2024-03-08T01:18:56;20.70;69.80
8002;DHT22;4046;48.774;8.732;2024-03-08T01:21:45;20.70;69.80
8002;DHT22;4046;48.774;8.732;2024-03-08T01:24:11;20.70;69.90
8002;DHT22;4046;48.774;8.732;2024-03-08T01:26:37;21.10;70.20
8002;DHT22;4046;48.774;8.732;2024-03-08T01:32:18;20.70;69.70
8002;DHT22;4046;48.774;8.732;2024-03-08T01:34:51;20.70;69.80
8002;DHT22;4046;48.774;8.732;2024-03-08T01:37:39;20.70;69.70
8002;DHT22;4046;48.774;8.732;2024-03-08T01:40:09;20.70;69.70
8002;DHT22;4046;48.774;8.732;2024-03-08T01:42:57;20.70;69.70
8002;DHT22;4046;48.774;8.732;2024-03-08T01:45:30;20.70;69.70
8002;DHT22;4046;48.774;8.732;2024-03-08T01:48:21;20.70;69.60
8002;DHT22;4046;48.774;8.732;2024-03-08T01:51:05;20.70;69.60
8002;DHT22;4046;48.774;8.732;2024-03-08T01:53:32;20.60;69.50
8002;DHT22;4046;48.774;8.732;2024-03-08T01:57:19;20.70;69.60
8002;DHT22;4046;48.774;8.732;2024-03-08T01:59:42;20.70;69.60
8002;DHT22;4046;48.774;8.732;2024-03-08T02:02:32;20.60;69.50
8002;DHT22;4046;48.774;8.732;2024-03-08T02:05:21;20.60;69.50
8002;DHT22;4046;48.774;8.732;2024-03-08T02:07:58;20.60;70.30
8002;DHT22;4046;48.774;8.732;2024-03-08T02:10:48;20.60;69.50
8002;DHT22;4046;48.774;8.732;2024-03-08T02:13:18;20.60;69.50
8002;DHT22;4046;48.774;8.732;2024-03-08T02:16:19;20.60;69.50
8002;DHT22;4046;48.774;8.732;2024-03-08T02:19:37;20.60;69.50
8002;DHT22;4046;48.774;8.732;2024-03-08T02:22:13;20.60;69.40
8002;DHT22;4046;48.774;8.732;2024-03-08T02:25:28;20.60;69.40
8002;DHT22;4046;48.774;8.732;2024-03-08T02:28:03;20.60;69.40
8002;DHT22;4046;48.774;8.732;2024-03-08T02:30:45;20.60;69.50
8002;DHT22;4046;48.774;8.732;2024-03-08T02:33:15;20.60;69.40
8002;DHT22;4046;48.774;8.732;2024-03-08T02:39:52;20.60;69.40
8002;DHT22;4046;48.774;8.732;2024-03-08T02:43:00;20.60;69.30
8002;DHT22;4046;48.774;8.732;2024-03-08T02:46:01;20.60;69.40
8002;DHT22;4046;48.774;8.732;2024-03-08T02:48:55;20.60;69.40
8002;DHT22;4046;48.774;8.732;2024-03-08T02:51:35;20.60;69.40
8002;DHT22;4046;48.774;8.732;2024-03-08T02:54:16;20.60;69.40
8002;DHT22;4046;48.774;8.732;2024-03-08T02:56:49;20.60;69.40
8002;DHT22;4046;48.774;8.732;2024-03-08T02:59:50;20.60;69.30
8002;DHT22;4046;48.774;8.732;2024-03-08T03:02:55;20.60;69.30
8002;DHT22;4046;48.774;8.732;2024-03-08T03:05:28;20.60;69.30
8002;DHT22;4046;48.774;8.732;2024-03-08T03:07:56;20.60;69.30
8002;DHT22;4046;48.774;8.732;2024-03-08T03:10:26;20.60;69.30
8002;DHT22;4046;48.774;8.732;2024-03-08T03:13:36;20.60;69.30
8002;DHT22;4046;48.774;8.732;2024-03-08T03:19:47;20.60;69.30
8002;DHT22;4046;48.774;8.732;2024-03-08T03:22:13;20.60;69.30
8002;DHT22;4046;48.774;8.732;2024-03-08T03:24:44;20.60;69.20
8002;DHT22;4046;48.774;8.732;2024-03-08T03:27:30;20.60;69.20
8002;DHT22;4046;48.774;8.732;2024-03-08T03:30:14;20.60;69.20
8002;DHT22;4046;48.774;8.732;2024-03-08T03:33:08;20.60;69.20
8002;DHT22;4046;48.774;8.732;2024-03-08T03:36:56;20.60;69.20
8002;DHT22;4046;48.774;8.732;2024-03-08T03:39:23;20.60;69.20
8002;DHT22;4046;48.774;8.732;2024-03-08T03:42:09;20.60;69.20
8002;DHT22;4046;48.774;8.732;2024-03-08T03:45:29;20.60;69.20
8002;DHT22;4046;48.774;8.732;2024-03-08T03:48:40;20.60;69.20
8002;DHT22;4046;48.774;8.732;2024-03-08T03:51:15;20.60;69.20
8002;DHT22;4046;48.774;8.732;2024-03-08T03:54:14;20.60;69.10
8002;DHT22;4046;48.774;8.732;2024-03-08T03:56:43;20.60;69.10
8002;DHT22;4046;48.774;8.732;2024-03-08T03:59:40;20.60;69.10
8002;DHT22;4046;48.774;8.732;2024-03-08T04:02:06;20.50;69.00
8002;DHT22;4046;48.774;8.732;2024-03-08T04:04:52;20.60;69.10
8002;DHT22;4046;48.774;8.732;2024-03-08T04:07:39;20.60;69.00
8002;DHT22;4046;48.774;8.732;2024-03-08T04:14:18;20.60;69.00
8002;DHT22;4046;48.774;8.732;2024-03-08T04:16:54;20.60;69.10
8002;DHT22;4046;48.774;8.732;2024-03-08T04:19:37;20.60;69.00
8002;DHT22;4046;48.774;8.732;2024-03-08T04:22:13;20.60;69.00
8002;DHT22;4046;48.774;8.732;2024-03-08T04:24:49;20.60;69.00
8002;DHT22;4046;48.774;8.732;2024-03-08T04:27:15;20.60;69.00
8002;DHT22;4046;48.774;8.732;2024-03-08T04:29:44;20.60;69.00
8002;DHT22;4046;48.774;8.732;2024-03-08T04:32:47;20.60;69.00
8002;DHT22;4046;48.774;8.732;2024-03-08T04:35:28;20.60;68.90
8002;DHT22;4046;48.774;8.732;2024-03-08T04:37:55;20.60;68.90
8002;DHT22;4046;48.774;8.732;2024-03-08T04:40:50;20.60;68.90
8002;DHT22;4046;48.774;8.732;2024-03-08T04:43:36;20.60;68.90
8002;DHT22;4046;48.774;8.732;2024-03-08T04:49:19;20.60;68.90
8002;DHT22;4046;48.774;8.732;2024-03-08T04:51:47;20.60;68.80
8002;DHT22;4046;48.774;8.732;2024-03-08T04:54:27;20.60;68.80
8002;DHT22;4046;48.774;8.732;2024-03-08T04:57:23;20.60;68.80
8002;DHT22;4046;48.774;8.732;2024-03-08T04:59:51;20.60;68.80
8002;DHT22;4046;48.774;8.732;2024-03-08T05:05:16;20.50;68.70
8002;DHT22;4046;48.774;8.732;2024-03-08T05:07:52;20.50;68.70
8002;DHT22;4046;48.774;8.732;2024-03-08T05:10:30;20.50;68.70
8002;DHT22;4046;48.774;8.732;2024-03-08T05:13:18;20.50;68.60
8002;DHT22;4046;48.774;8.732;2024-03-08T05:16:30;20.60;68.70
8002;DHT22;4046;48.774;8.732;2024-03-08T05:19:26;20.50;68.60
8002;DHT22;4046;48.774;8.732;2024-03-08T05:21:56;20.50;68.60
8002;DHT22;4046;48.774;8.732;2024-03-08T05:24:22;20.50;68.60
8002;DHT22;4046;48.774;8.732;2024-03-08T05:26:57;20.50;68.60
8002;DHT22;4046;48.774;8.732;2024-03-08T05:29:34;20.50;68.60
8002;DHT22;4046;48.774;8.732;2024-03-08T05:32:09;20.20;68.30
8002;DHT22;4046;48.774;8.732;2024-03-08T05:35:05;20.50;68.50
8002;DHT22;4046;48.774;8.732;2024-03-08T05:37:56;20.50;68.50
8002;DHT22;4046;48.774;8.732;2024-03-08T05:40:45;20.50;68.50
8002;DHT22;4046;48.774;8.732;2024-03-08T05:43:15;20.50;68.50
8002;DHT22;4046;48.774;8.732;2024-03-08T05:45:46;20.50;68.50
8002;DHT22;4046;48.774;8.732;2024-03-08T05:48:51;20.50;68.50
8002;DHT22;4046;48.774;8.732;2024-03-08T05:51:32;20.50;68.50
8002;DHT22;4046;48.774;8.732;2024-03-08T05:54:59;20.50;68.40
8002;DHT22;4046;48.774;8.732;2024-03-08T05:57:15;20.50;68.40
8002;DHT22;4046;48.774;8.732;2024-03-08T06:00:03;20.50;68.40
8002;DHT22;4046;48.774;8.732;2024-03-08T06:02:33;20.50;68.30
8002;DHT22;4046;48.774;8.732;2024-03-08T06:05:29;20.50;68.30
8002;DHT22;4046;48.774;8.732;2024-03-08T06:07:55;20.50;68.30
8002;DHT22;4046;48.774;8.732;2024-03-08T06:10:23;20.50;68.30
8002;DHT22;4046;48.774;8.732;2024-03-08T06:13:11;20.50;68.30
8002;DHT22;4046;48.774;8.732;2024-03-08T06:15:38;20.50;68.30
8002;DHT22;4046;48.774;8.732;2024-03-08T06:18:04;20.50;68.30
8002;DHT22;4046;48.774;8.732;2024-03-08T06:20:35;20.50;68.20
8002;DHT22;4046;48.774;8.732;2024-03-08T06:23:27;20.50;68.30
8002;DHT22;4046;48.774;8.732;2024-03-08T06:26:04;20.60;68.30
8002;DHT22;4046;48.774;8.732;2024-03-08T06:28:40;20.50;68.10
8002;DHT22;4046;48.774;8.732;2024-03-08T06:31:15;20.50;68.20
8002;DHT22;4046;48.774;8.732;2024-03-08T06:33:48;20.50;68.10
8002;DHT22;4046;48.774;8.732;2024-03-08T06:39:14;20.50;68.10
8002;DHT22;4046;48.774;8.732;2024-03-08T06:41:40;20.50;68.10
8002;DHT22;4046;48.774;8.732;2024-03-08T06:44:30;20.50;68.10
8002;DHT22;4046;48.774;8.732;2024-03-08T06:47:11;20.50;68.10
8002;DHT22;4046;48.774;8.732;2024-03-08T06:49:48;20.50;68.10
8002;DHT22;4046;48.774;8.732;2024-03-08T06:53:00;20.50;68.10
8002;DHT22;4046;48.774;8.732;2024-03-08T06:55:26;20.50;68.00
8002;DHT22;4046;48.774;8.732;2024-03-08T06:57:54;20.60;68.20
8002;DHT22;4046;48.774;8.732;2024-03-08T07:00:38;20.50;68.10
8002;DHT22;4046;48.774;8.732;2024-03-08T07:03:07;20.50;68.10
8002;DHT22;4046;48.774;8.732;2024-03-08T07:05:34;20.50;68.00
8002;DHT22;4046;48.774;8.732;2024-03-08T07:08:01;20.50;68.00
8002;DHT22;4046;48.774;8.732;2024-03-08T07:10:42;20.50;68.00
8002;DHT22;4046;48.774;8.732;2024-03-08T07:13:21;20.50;68.00
8002;DHT22;4046;48.774;8.732;2024-03-08T07:15:47;20.50;67.90
8002;DHT22;4046;48.774;8.732;2024-03-08T07:18:16;20.50;68.10
8002;DHT22;4046;48.774;8.732;2024-03-08T07:21:24;20.50;67.90
8002;DHT22;4046;48.774;8.732;2024-03-08T07:23:50;20.70;68.10
8002;DHT22;4046;48.774;8.732;2024-03-08T07:27:00;20.50;67.90
8002;DHT22;4046;48.774;8.732;2024-03-08T07:29:27;20.50;67.90
8002;DHT22;4046;48.774;8.732;2024-03-08T07:32:24;20.50;68.00
8002;DHT22;4046;48.774;8.732;2024-03-08T07:34:54;20.50;68.00
8002;DHT22;4046;48.774;8.732;2024-03-08T07:37:22;20.50;67.90
8002;DHT22;4046;48.774;8.732;2024-03-08T07:40:06;20.50;67.80
8002;DHT22;4046;48.774;8.732;2024-03-08T07:42:41;20.50;67.80
8002;DHT22;4046;48.774;8.732;2024-03-08T07:45:16;20.60;68.00
8002;DHT22;4046;48.774;8.732;2024-03-08T07:47:52;20.60;67.90
8002;DHT22;4046;48.774;8.732;2024-03-08T07:50:28;20.60;67.90
8002;DHT22;4046;48.774;8.732;2024-03-08T07:53:04;20.60;67.90
8002;DHT22;4046;48.774;8.732;2024-03-08T07:55:43;20.60;67.90
8002;DHT22;4046;48.774;8.732;2024-03-08T07:58:26;20.50;67.80
8002;DHT22;4046;48.774;8.732;2024-03-08T08:01:01;20.50;67.80
8002;DHT22;4046;48.774;8.732;2024-03-08T08:03:59;20.50;67.80
8002;DHT22;4046;48.774;8.732;2024-03-08T08:07:00;20.50;68.10
8002;DHT22;4046;48.774;8.732;2024-03-08T08:10:05;20.50;67.80
8002;DHT22;4046;48.774;8.732;2024-03-08T08:12:35;20.50;67.70
8002;DHT22;4046;48.774;8.732;2024-03-08T08:15:16;20.50;67.70
8002;DHT22;4046;48.774;8.732;2024-03-08T08:18:20;20.50;67.80
8002;DHT22;4046;48.774;8.732;2024-03-08T08:20:51;20.50;67.80
8002;DHT22;4046;48.774;8.732;2024-03-08T08:23:21;20.50;68.10
8002;DHT22;4046;48.774;8.732;2024-03-08T08:26:15;20.40;67.80
8002;DHT22;4046;48.774;8.732;2024-03-08T08:32:17;20.40;67.80
8002;DHT22;4046;48.774;8.732;2024-03-08T08:34:44;20.40;67.90
8002;DHT22;4046;48.774;8.732;2024-03-08T08:37:20;20.30;67.80
8002;DHT22;4046;48.774;8.732;2024-03-08T08:43:02;20.30;67.90
8002;DHT22;4046;48.774;8.732;2024-03-08T08:45:34;20.30;67.90
8002;DHT22;4046;48.774;8.732;2024-03-08T08:48:34;20.20;67.80
8002;DHT22;4046;48.774;8.732;2024-03-08T08:51:25;20.20;67.80
8002;DHT22;4046;48.774;8.732;2024-03-08T08:54:29;19.60;67.20
8002;DHT22;4046;48.774;8.732;2024-03-08T08:57:40;20.20;67.90
8002;DHT22;4046;48.774;8.732;2024-03-08T09:00:07;20.20;67.90
8002;DHT22;4046;48.774;8.732;2024-03-08T09:02:42;20.20;67.90
8002;DHT22;4046;48.774;8.732;2024-03-08T09:05:14;20.20;67.80
8002;DHT22;4046;48.774;8.732;2024-03-08T09:07:49;20.20;67.80
8002;DHT22;4046;48.774;8.732;2024-03-08T09:13:08;20.20;67.90
8002;DHT22;4046;48.774;8.732;2024-03-08T09:16:10;20.20;67.80
8002;DHT22;4046;48.774;8.732;2024-03-08T09:18:42;20.10;67.80
8002;DHT22;4046;48.774;8.732;2024-03-08T09:21:37;20.10;67.70
8002;DHT22;4046;48.774;8.732;2024-03-08T09:24:29;20.20;67.80
8002;DHT22;4046;48.774;8.732;2024-03-08T09:27:22;20.20;67.70
8002;DHT22;4046;48.774;8.732;2024-03-08T09:29:52;20.20;67.80
8002;DHT22;4046;48.774;8.732;2024-03-08T09:32:24;20.10;67.70
8002;DHT22;4046;48.774;8.732;2024-03-08T09:35:00;20.20;67.70
8002;DHT22;4046;48.774;8.732;2024-03-08T09:37:33;20.20;67.70
8002;DHT22;4046;48.774;8.732;2024-03-08T09:40:17;20.20;67.70
8002;DHT22;4046;48.774;8.732;2024-03-08T09:42:49;20.10;68.30
8002;DHT22;4046;48.774;8.732;2024-03-08T09:45:31;20.10;67.60
8002;DHT22;4046;48.774;8.732;2024-03-08T09:48:01;20.10;67.50
8002;DHT22;4046;48.774;8.732;2024-03-08T09:50:28;20.10;67.50
8002;DHT22;4046;48.774;8.732;2024-03-08T09:52:55;20.10;67.50
8002;DHT22;4046;48.774;8.732;2024-03-08T09:55:25;20.10;67.50
8002;DHT22;4046;48.774;8.732;2024-03-08T09:57:51;20.10;67.50
8002;DHT22;4046;48.774;8.732;2024-03-08T10:00:55;20.10;67.50
8002;DHT22;4046;48.774;8.732;2024-03-08T10:03:28;20.10;67.50
8002;DHT22;4046;48.774;8.732;2024-03-08T10:06:07;20.10;67.50
8002;DHT22;4046;48.774;8.732;2024-03-08T10:08:36;20.10;67.50
8002;DHT22;4046;48.774;8.732;2024-03-08T10:14:00;20.10;67.50
8002;DHT22;4046;48.774;8.732;2024-03-08T10:16:27;20.10;67.60
8002;DHT22;4046;48.774;8.732;2024-03-08T10:19:06;20.10;67.50
8002;DHT22;4046;48.774;8.732;2024-03-08T10:22:15;20.10;67.60
8002;DHT22;4046;48.774;8.732;2024-03-08T10:24:53;20.10;67.60
8002;DHT22;4046;48.774;8.732;2024-03-08T10:27:50;20.10;67.50
8002;DHT22;4046;48.774;8.732;2024-03-08T10:30:22;20.10;67.50
8002;DHT22;4046;48.774;8.732;2024-03-08T10:32:49;20.10;67.50
8002;DHT22;4046;48.774;8.732;2024-03-08T10:35:31;20.10;67.50
8002;DHT22;4046;48.774;8.732;2024-03-08T10:38:05;20.20;67.70
8002;DHT22;4046;48.774;8.732;2024-03-08T10:40:34;20.10;67.50
8002;DHT22;4046;48.774;8.732;2024-03-08T10:43:02;20.10;67.60
8002;DHT22;4046;48.774;8.732;2024-03-08T10:45:38;20.10;67.50
8002;DHT22;4046;48.774;8.732;2024-03-08T10:48:31;20.10;67.50
8002;DHT22;4046;48.774;8.732;2024-03-08T10:51:06;20.10;67.60
8002;DHT22;4046;48.774;8.732;2024-03-08T10:53:38;20.10;67.60
8002;DHT22;4046;48.774;8.732;2024-03-08T10:56:11;20.10;67.50
8002;DHT22;4046;48.774;8.732;2024-03-08T10:58:40;20.10;67.50
8002;DHT22;4046;48.774;8.732;2024-03-08T11:01:08;20.10;67.50
8002;DHT22;4046;48.774;8.732;2024-03-08T11:09:31;20.20;67.60
8002;DHT22;4046;48.774;8.732;2024-03-08T11:12:20;20.10;67.70
8002;DHT22;4046;48.774;8.732;2024-03-08T11:15:10;20.10;67.90
8002;DHT22;4046;48.774;8.732;2024-03-08T11:20:50;20.00;67.60
8002;DHT22;4046;48.774;8.732;2024-03-08T11:23:23;19.90;67.60
8002;DHT22;4046;48.774;8.732;2024-03-08T11:25:49;19.90;67.70
8002;DHT22;4046;48.774;8.732;2024-03-08T11:28:20;20.00;67.60
8002;DHT22;4046;48.774;8.732;2024-03-08T11:33:54;20.00;67.60
8002;DHT22;4046;48.774;8.732;2024-03-08T11:36:24;20.20;68.00
8002;DHT22;4046;48.774;8.732;2024-03-08T11:39:06;20.00;67.70
8002;DHT22;4046;48.774;8.732;2024-03-08T11:41:46;20.00;67.70
8002;DHT22;4046;48.774;8.732;2024-03-08T11:44:27;20.00;67.60
8002;DHT22;4046;48.774;8.732;2024-03-08T11:46:54;20.00;67.30
8002;DHT22;4046;48.774;8.732;2024-03-08T11:49:31;20.00;67.30
8002;DHT22;4046;48.774;8.732;2024-03-08T11:52:27;20.00;67.10
8002;DHT22;4046;48.774;8.732;2024-03-08T11:55:10;20.00;67.10
8002;DHT22;4046;48.774;8.732;2024-03-08T11:57:39;20.00;66.80
8002;DHT22;4046;48.774;8.732;2024-03-08T12:00:29;20.00;66.80
8002;DHT22;4046;48.774;8.732;2024-03-08T12:03:09;20.10;66.80
8002;DHT22;4046;48.774;8.732;2024-03-08T12:05:41;20.40;67.00
8002;DHT22;4046;48.774;8.732;2024-03-08T12:08:24;20.10;66.60
8002;DHT22;4046;48.774;8.732;2024-03-08T12:10:58;20.10;66.70
8002;DHT22;4046;48.774;8.732;2024-03-08T12:13:48;20.10;66.50
8002;DHT22;4046;48.774;8.732;2024-03-08T12:16:17;20.10;66.40
8002;DHT22;4046;48.774;8.732;2024-03-08T12:18:51;20.10;66.40
8002;DHT22;4046;48.774;8.732;2024-03-08T12:21:47;20.10;67.10
8002;DHT22;4046;48.774;8.732;2024-03-08T12:24:26;20.10;66.20
8002;DHT22;4046;48.774;8.732;2024-03-08T12:26:53;20.10;66.20
8002;DHT22;4046;48.774;8.732;2024-03-08T12:29:25;20.20;66.30
8002;DHT22;4046;48.774;8.732;2024-03-08T12:32:00;20.20;66.20
8002;DHT22;4046;48.774;8.732;2024-03-08T12:34:31;20.20;66.10
8002;DHT22;4046;48.774;8.732;2024-03-08T12:36:58;20.60;66.50
8002;DHT22;4046;48.774;8.732;2024-03-08T12:39:35;20.20;66.00
8002;DHT22;4046;48.774;8.732;2024-03-08T12:42:27;20.20;66.00
8002;DHT22;4046;48.774;8.732;2024-03-08T12:45:05;20.20;65.90
8002;DHT22;4046;48.774;8.732;2024-03-08T12:47:36;20.30;66.00
8002;DHT22;4046;48.774;8.732;2024-03-08T12:50:03;20.30;66.00
8002;DHT22;4046;48.774;8.732;2024-03-08T12:52:29;20.30;65.90
8002;DHT22;4046;48.774;8.732;2024-03-08T12:54:59;20.30;65.80
8002;DHT22;4046;48.774;8.732;2024-03-08T12:57:46;20.30;65.80
8002;DHT22;4046;48.774;8.732;2024-03-08T13:00:16;20.40;66.00
8002;DHT22;4046;48.774;8.732;2024-03-08T13:03:16;20.80;66.30
8002;DHT22;4046;48.774;8.732;2024-03-08T13:05:49;20.40;65.80
8002;DHT22;4046;48.774;8.732;2024-03-08T13:08:34;20.40;65.80
8002;DHT22;4046;48.774;8.732;2024-03-08T13:14:09;20.40;65.80
8002;DHT22;4046;48.774;8.732;2024-03-08T13:16:37;20.40;65.70
8002;DHT22;4046;48.774;8.732;2024-03-08T13:19:12;20.40;65.60
8002;DHT22;4046;48.774;8.732;2024-03-08T13:22:02;20.40;65.80
8002;DHT22;4046;48.774;8.732;2024-03-08T13:24:39;20.40;65.60
8002;DHT22;4046;48.774;8.732;2024-03-08T13:27:15;20.40;65.60
8002;DHT22;4046;48.774;8.732;2024-03-08T13:29:55;20.50;65.60
8002;DHT22;4046;48.774;8.732;2024-03-08T13:32:31;20.50;65.60
8002;DHT22;4046;48.774;8.732;2024-03-08T13:35:06;20.50;65.60
8002;DHT22;4046;48.774;8.732;2024-03-08T13:38:10;20.50;65.60
8002;DHT22;4046;48.774;8.732;2024-03-08T13:40:52;20.50;65.60
8002;DHT22;4046;48.774;8.732;2024-03-08T13:43:18;20.50;65.60
8002;DHT22;4046;48.774;8.732;2024-03-08T13:48:28;20.50;65.50
8002;DHT22;4046;48.774;8.732;2024-03-08T13:50:58;20.50;65.50
8002;DHT22;4046;48.774;8.732;2024-03-08T13:53:30;20.50;65.60
8002;DHT22;4046;48.774;8.732;2024-03-08T13:56:08;20.40;65.50
8002;DHT22;4046;48.774;8.732;2024-03-08T13:59:14;20.00;65.10
8002;DHT22;4046;48.774;8.732;2024-03-08T14:02:02;20.50;65.60
8002;DHT22;4046;48.774;8.732;2024-03-08T14:04:52;20.40;65.50
8002;DHT22;4046;48.774;8.732;2024-03-08T14:07:29;20.40;65.60
8002;DHT22;4046;48.774;8.732;2024-03-08T14:10:49;20.40;65.60
8002;DHT22;4046;48.774;8.732;2024-03-08T14:13:20;20.40;65.70
8002;DHT22;4046;48.774;8.732;2024-03-08T14:16:07;20.40;65.70
8002;DHT22;4046;48.774;8.732;2024-03-08T14:19:05;20.40;65.80
8002;DHT22;4046;48.774;8.732;2024-03-08T14:21:41;20.40;65.70
8002;DHT22;4046;48.774;8.732;2024-03-08T14:24:32;20.40;65.80
8002;DHT22;4046;48.774;8.732;2024-03-08T14:27:23;20.40;65.80
8002;DHT22;4046;48.774;8.732;2024-03-08T14:30:06;20.30;65.80
8002;DHT22;4046;48.774;8.732;2024-03-08T14:32:40;20.40;65.90
8002;DHT22;4046;48.774;8.732;2024-03-08T14:35:10;20.30;65.80
8002;DHT22;4046;48.774;8.732;2024-03-08T14:37:42;20.30;65.80
8002;DHT22;4046;48.774;8.732;2024-03-08T14:40:10;20.30;65.80
8002;DHT22;4046;48.774;8.732;2024-03-08T14:43:01;20.30;65.80
8002;DHT22;4046;48.774;8.732;2024-03-08T14:45:27;20.30;65.80
8002;DHT22;4046;48.774;8.732;2024-03-08T14:48:18;20.30;65.80
8002;DHT22;4046;48.774;8.732;2024-03-08T14:51:07;20.30;65.90
8002;DHT22;4046;48.774;8.732;2024-03-08T14:53:37;20.50;66.20
8002;DHT22;4046;48.774;8.732;2024-03-08T14:56:08;20.20;66.00
8002;DHT22;4046;48.774;8.732;2024-03-08T14:58:35;20.20;66.00
8002;DHT22;4046;48.774;8.732;2024-03-08T15:01:47;20.20;66.00
8002;DHT22;4046;48.774;8.732;2024-03-08T15:04:56;20.20;66.00
8002;DHT22;4046;48.774;8.732;2024-03-08T15:07:49;20.20;66.00
8002;DHT22;4046;48.774;8.732;2024-03-08T15:10:16;20.20;66.10
8002;DHT22;4046;48.774;8.732;2024-03-08T15:12:51;20.20;66.10
8002;DHT22;4046;48.774;8.732;2024-03-08T15:18:25;20.10;66.10
8002;DHT22;4046;48.774;8.732;2024-03-08T15:20:52;20.10;66.20
8002;DHT22;4046;48.774;8.732;2024-03-08T15:23:19;20.10;66.20
8002;DHT22;4046;48.774;8.732;2024-03-08T15:25:47;20.10;66.10
8002;DHT22;4046;48.774;8.732;2024-03-08T15:28:15;20.10;66.20
8002;DHT22;4046;48.774;8.732;2024-03-08T15:30:57;20.00;66.10
8002;DHT22;4046;48.774;8.732;2024-03-08T15:33:34;20.00;66.10
8002;DHT22;4046;48.774;8.732;2024-03-08T15:36:32;20.00;66.10
8002;DHT22;4046;48.774;8.732;2024-03-08T15:39:18;20.00;66.20
8002;DHT22;4046;48.774;8.732;2024-03-08T15:42:02;20.00;66.30
8002;DHT22;4046;48.774;8.732;2024-03-08T15:44:37;19.90;66.10
8002;DHT22;4046;48.774;8.732;2024-03-08T15:47:19;19.90;66.10
8002;DHT22;4046;48.774;8.732;2024-03-08T15:49:48;19.90;66.20
8002;DHT22;4046;48.774;8.732;2024-03-08T15:52:46;19.90;66.20
8002;DHT22;4046;48.774;8.732;2024-03-08T15:56:04;19.90;66.30
8002;DHT22;4046;48.774;8.732;2024-03-08T15:58:47;19.90;66.30
8002;DHT22;4046;48.774;8.732;2024-03-08T16:01:30;19.90;66.30
8002;DHT22;4046;48.774;8.732;2024-03-08T16:04:03;19.90;66.30
8002;DHT22;4046;48.774;8.732;2024-03-08T16:06:50;19.90;66.30
8002;DHT22;4046;48.774;8.732;2024-03-08T16:09:33;19.90;66.30
8002;DHT22;4046;48.774;8.732;2024-03-08T16:12:11;19.90;66.30
8002;DHT22;4046;48.774;8.732;2024-03-08T16:15:15;19.90;66.30
8002;DHT22;4046;48.774;8.732;2024-03-08T16:17:59;19.90;66.20
8002;DHT22;4046;48.774;8.732;2024-03-08T16:20:40;20.00;66.40
8002;DHT22;4046;48.774;8.732;2024-03-08T16:23:13;20.10;66.30
8002;DHT22;4046;48.774;8.732;2024-03-08T16:25:50;20.10;66.30
8002;DHT22;4046;48.774;8.732;2024-03-08T16:28:16;20.10;66.20
8002;DHT22;4046;48.774;8.732;2024-03-08T16:30:49;20.20;66.30
8002;DHT22;4046;48.774;8.732;2024-03-08T16:33:15;20.20;66.20
8002;DHT22;4046;48.774;8.732;2024-03-08T16:35:46;20.30;66.30
8002;DHT22;4046;48.774;8.732;2024-03-08T16:38:29;20.30;66.20
8002;DHT22;4046;48.774;8.732;2024-03-08T16:41:12;20.30;66.20
8002;DHT22;4046;48.774;8.732;2024-03-08T16:43:42;20.30;66.30
8002;DHT22;4046;48.774;8.732;2024-03-08T16:46:09;20.30;66.30
8002;DHT22;4046;48.774;8.732;2024-03-08T16:48:37;20.30;66.30
8002;DHT22;4046;48.774;8.732;2024-03-08T16:51:04;20.30;66.30
8002;DHT22;4046;48.774;8.732;2024-03-08T16:53:30;20.30;66.40
8002;DHT22;4046;48.774;8.732;2024-03-08T16:56:03;20.30;66.80
8002;DHT22;4046;48.774;8.732;2024-03-08T16:58:33;20.30;66.70
8002;DHT22;4046;48.774;8.732;2024-03-08T17:01:34;20.30;66.80
8002;DHT22;4046;48.774;8.732;2024-03-08T17:04:09;20.30;67.00
8002;DHT22;4046;48.774;8.732;2024-03-08T17:06:41;20.30;66.90
8002;DHT22;4046;48.774;8.732;2024-03-08T17:09:20;20.30;66.90
8002;DHT22;4046;48.774;8.732;2024-03-08T17:11:48;20.30;66.90
8002;DHT22;4046;48.774;8.732;2024-03-08T17:14:16;20.30;66.80
8002;DHT22;4046;48.774;8.732;2024-03-08T17:17:20;20.30;66.80
8002;DHT22;4046;48.774;8.732;2024-03-08T17:20:16;20.30;66.80
8002;DHT22;4046;48.774;8.732;2024-03-08T17:23:14;20.30;66.80
8002;DHT22;4046;48.774;8.732;2024-03-08T17:25:48;20.30;66.80
8002;DHT22;4046;48.774;8.732;2024-03-08T17:31:27;20.40;66.90
8002;DHT22;4046;48.774;8.732;2024-03-08T17:34:09;20.40;66.90
8002;DHT22;4046;48.774;8.732;2024-03-08T17:36:35;20.40;66.80
8002;DHT22;4046;48.774;8.732;2024-03-08T17:39:02;20.40;66.90
8002;DHT22;4046;48.774;8.732;2024-03-08T17:41:41;20.40;66.80
8002;DHT22;4046;48.774;8.732;2024-03-08T17:44:23;20.40;66.80
8002;DHT22;4046;48.774;8.732;2024-03-08T17:46:55;20.40;66.80
8002;DHT22;4046;48.774;8.732;2024-03-08T17:49:51;20.40;66.80
8002;DHT22;4046;48.774;8.732;2024-03-08T17:52:26;20.40;66.80
8002;DHT22;4046;48.774;8.732;2024-03-08T17:54:59;20.40;66.80
8002;DHT22;4046;48.774;8.732;2024-03-08T17:57:29;20.40;66.80
8002;DHT22;4046;48.774;8.732;2024-03-08T18:00:24;20.40;66.70
8002;DHT22;4046;48.774;8.732;2024-03-08T18:03:29;20.40;66.70
8002;DHT22;4046;48.774;8.732;2024-03-08T18:06:00;20.40;66.80
8002;DHT22;4046;48.774;8.732;2024-03-08T18:08:54;20.40;66.80
8002;DHT22;4046;48.774;8.732;2024-03-08T18:11:41;20.40;66.80
8002;DHT22;4046;48.774;8.732;2024-03-08T18:14:09;20.40;66.80
8002;DHT22;4046;48.774;8.732;2024-03-08T18:17:06;20.40;66.80
8002;DHT22;4046;48.774;8.732;2024-03-08T18:19:42;20.40;67.60
8002;DHT22;4046;48.774;8.732;2024-03-08T18:22:29;20.50;66.80
8002;DHT22;4046;48.774;8.732;2024-03-08T18:25:04;20.40;66.80
8002;DHT22;4046;48.774;8.732;2024-03-08T18:27:58;20.40;66.80
8002;DHT22;4046;48.774;8.732;2024-03-08T18:30:31;20.40;66.80
8002;DHT22;4046;48.774;8.732;2024-03-08T18:32:58;20.40;66.80
8002;DHT22;4046;48.774;8.732;2024-03-08T18:35:27;20.50;66.90
8002;DHT22;4046;48.774;8.732;2024-03-08T18:37:54;20.50;66.80
8002;DHT22;4046;48.774;8.732;2024-03-08T18:40:31;20.50;66.80
8002;DHT22;4046;48.774;8.732;2024-03-08T18:43:23;20.50;66.90